• Join FlightAware (Why Join?)
  • Login
  • US Flag 
12:58AM EDT


 

Airport Tracker/Info


-or-


 

Live Flight TrackerFlight Track Log ✈ SWA492 ✈ 12-Jun-2013 ✈ KMDW - KBOS

Flight Track Log - Related Links

Times and Time Zones

All times are in EDT time to prevent confusion due to time zone crossing. See the SWA492 flight status page for this flight to view local times or setup timezone preferences in your user account.

Time Position Orientation Groundspeed Altitude Reporting Facility
EDT Latitude Longitude Course Direction KTS MPH feet Rate Location/Type
09:20AM 41.8167 -87.7500 86° East 199 229 2,200  Level Chicago TRACON
09:21AM 41.8231 -87.7083 78° East 256 295 3,800 2,340 Climbing Chicago Center
09:22AM 41.8267 -87.6075 87° East 271 312 6,000 1,200 Climbing Chicago Center
09:23AM 41.8250 -87.4942 91° East 310 357 6,400 1,680 Climbing Chicago Center
09:24AM 41.8083 -87.3819 101° East 308 354 9,500 2,820 Climbing Chicago Center
09:25AM 41.7919 -87.2631 100° East 321 369 12,300 2,220 Climbing Chicago Center
09:26AM 41.7510 -86.7997 86° East  Level FlightAware Approximate
09:26AM 41.7711 -87.1286 102° East 361 415 14,200  Level Chicago Center
09:27AM 41.7625 -86.9442 94° East 412 474 17,800 3,000 Climbing Chicago Center
09:28AM 41.7644 -86.7869 89° East 422 486 20,400 2,460 Climbing Chicago Center
09:29AM 41.7661 -86.6203 89° East 437 503 22,900 2,160 Climbing Chicago Center
09:30AM 41.7669 -86.4528 90° East 450 518 24,900 1,860 Climbing Chicago Center
09:31AM 41.7825 -86.2817 83° East 468 539 26,800 1,740 Climbing Chicago Center
09:32AM 41.8475 -86.1308 60° Northeast 466 536 28,600 1,680 Climbing Chicago Center
09:33AM 41.9139 -85.9786 60° Northeast 470 541 30,300 1,920 Climbing Chicago Center
09:34AM 41.9828 -85.7861 64° Northeast 472 543 32,600 1,860 Climbing Chicago Center
09:35AM 42.0142 -85.6319 75° East 472 543 34,200 1,200 Climbing Chicago Center
09:36AM 42.0289 -85.4511 84° East 486 559 35,100 840 Climbing Chicago Center
09:38AM 42.0517 -85.2331 82° East 492 566 36,000 420 Climbing Chicago Center
09:39AM 42.0700 -85.0511 82° East 494 568 36,000  Level Chicago Center
09:40AM 42.0911 -84.8706 81° East 491 565 36,000  Level Chicago Center
09:41AM 42.1114 -84.6894 81° East 491 565 36,000  Level Chicago Center
09:42AM 42.1289 -84.5100 82° East 489 563 36,000  Level Chicago Center
09:43AM 42.1486 -84.3289 82° East 489 563 36,000 240 Level Chicago Center
09:44AM 42.1714 -84.1131 82° East 487 560 36,500 420 Climbing Chicago Center
09:45AM 42.1869 -83.9097 84° East 479 551 37,000 840 Climbing Cleveland Center
09:46AM 42.2067 -83.7286 82° East 479 551 38,300 960 Climbing Cleveland Center
09:47AM 42.2236 -83.5639 82° East 479 551 39,000 300 Climbing Cleveland Center
09:48AM 42.2406 -83.3794 83° East 486 559 39,000 -60 Level Cleveland Center
09:49AM 42.2575 -83.1922 83° East 495 570 38,900  Descending Cleveland Center
09:50AM 42.2739 -83.0161 83° East 495 570 39,000  Climbing Cleveland Center
09:51AM 42.2903 -82.8314 83° East 495 570 39,000  Level Cleveland Center
09:52AM 42.3083 -82.6469 82° East 495 570 39,000  Level Cleveland Center
09:53AM 42.3239 -82.4675 83° East 490 564 39,000  Level Cleveland Center
09:54AM 42.3394 -82.2769 84° East 490 564 39,000  Level Cleveland Center
09:55AM 42.3586 -82.0808 82° East 495 570 39,000 -60 Level Cleveland Center
09:56AM 42.3736 -81.8956 84° East 495 570 38,900  Descending Cleveland Center
09:57AM 42.3858 -81.7300 84° East 495 570 39,000  Climbing Cleveland Center
09:58AM 42.4019 -81.5475 83° East 495 570 39,000  Level Cleveland Center
09:59AM 42.4158 -81.3622 84° East 490 564 39,000  Level Cleveland Center
10:00AM 42.4294 -81.1794 84° East 490 564 39,000  Level Cleveland Center
10:01AM 42.4450 -80.9939 83° East 499 574 39,000  Level Cleveland Center
10:02AM 42.4581 -80.7942 85° East 499 574 39,000  Level Cleveland Center
10:03AM 42.4728 -80.6028 84° East 494 568 39,000  Level Cleveland Center
10:04AM 42.4850 -80.4169 85° East 500 575 39,000  Level Cleveland Center
10:05AM 42.4972 -80.2311 85° East 493 567 39,000  Level Cleveland Center
10:06AM 42.5089 -80.0453 85° East 498 573 39,000  Level Cleveland Center
10:07AM 42.5225 -79.8619 84° East 498 573 39,000  Level Cleveland Center
10:08AM 42.5358 -79.6731 84° East 498 573 39,000  Level Cleveland Center
10:09AM 42.5447 -79.4869 86° East 498 573 39,000  Level Cleveland Center
10:10AM 42.5594 -79.3006 84° East 498 573 39,000  Level Cleveland Center
10:11AM 42.5697 -79.1144 86° East 498 573 39,000  Level Cleveland Center
10:12AM 42.5797 -78.9281 86° East 498 573 39,000  Level Cleveland Center
10:13AM 42.5894 -78.7389 86° East 498 573 39,000  Level Cleveland Center
10:14AM 42.5986 -78.5494 86° East 498 573 39,000  Level Cleveland Center
10:15AM 42.6097 -78.3603 85° East 498 573 39,000 -60 Level Cleveland Center
10:16AM 42.6183 -78.1681 86° East 498 573 38,900  Descending Cleveland Center
10:17AM 42.6269 -77.9814 86° East 498 573 39,000  Climbing Cleveland Center
10:18AM 42.6347 -77.7864 87° East 498 573 38,900 -60 Descending Cleveland Center
10:19AM 42.6447 -77.5967 86° East 498 573 38,900  Level Cleveland Center
10:22AM 42.6636 -77.0969 87° East 515 593 39,000  Climbing Boston Center
10:23AM 42.6711 -76.9053 87° East 515 593 39,000  Level Boston Center
10:24AM 42.6786 -76.7136 87° East 520 598 39,000  Level Boston Center
10:25AM 42.6875 -76.5250 86° East 514 592 39,000  Level Boston Center
10:26AM 42.6942 -76.3333 87° East 509 586 39,000 -60 Level Boston Center
10:27AM 42.6964 -76.1442 89° East 504 580 38,900 -60 Descending Boston Center
10:28AM 42.6922 -75.9489 92° East 504 580 38,900  Level Boston Center
10:29AM 42.6856 -75.7564 93° East 509 586 38,900  Level Boston Center
10:30AM 42.6825 -75.5639 91° East 509 586 38,900  Level Boston Center
10:31AM 42.6753 -75.3689 93° East 514 592 38,900  Level Boston Center
10:32AM 42.6697 -75.1792 92° East 514 592 38,900  Level Boston Center
10:33AM 42.6658 -74.9842 91° East 520 598 38,900  Level Boston Center
10:34AM 42.6617 -74.7892 92° East 515 593 38,900  Level Boston Center
10:35AM 42.6531 -74.5969 93° East 515 593 38,900  Level Boston Center
10:36AM 42.6461 -74.3992 93° East 515 593 38,900  Level Boston Center
10:37AM 42.6414 -74.1844 92° East 524 603 38,900  Level Boston Center
10:38AM 42.6317 -73.9894 94° East 519 597 38,900  Level Boston Center
10:39AM 42.6278 -73.7975 92° East 514 592 38,900  Level Boston Center
10:40AM 42.6214 -73.6250 93° East 514 592 39,000  Climbing Boston Center
10:41AM 42.6128 -73.4303 93° East 514 592 38,900 -1,320 Descending Boston Center
10:42AM 42.6061 -73.2411 93° East 514 592 36,400 -2,940 Descending Boston Center
10:43AM 42.5928 -73.0239 95° East 519 597 33,100 -3,300 Descending Boston Center
10:44AM 42.5853 -72.8347 93° East 507 583 29,900 -3,300 Descending Boston Center
10:45AM 42.5772 -72.6544 93° East 492 566 26,600 -2,880 Descending Boston Center
10:46AM 42.5692 -72.4936 94° East 482 555 24,200 -2,520 Descending Boston Center
10:47AM 42.5608 -72.3217 94° East 471 542 21,600 -2,520 Descending Boston Center
10:48AM 42.5522 -72.1556 94° East 453 521 19,200 -2,580 Descending Boston Center
10:49AM 42.5392 -71.9836 96° East 423 487 16,500 -2,340 Descending Boston Center
10:50AM 42.5261 -71.8486 97° East 411 473 14,600 -2,160 Descending Boston Center
10:51AM 42.5125 -71.6908 97° East 392 451 12,200 -2,160 Descending Boston Center
10:51AM 42.5000 -71.5833 99° East 385 443 11,000 -1,020 Descending KA90
10:52AM 42.4833 -71.4333 99° East 381 438 10,500 -600 Descending KA90
10:53AM 42.4833 -71.3167 90° East 334 384 9,800 -1,020 Descending KA90
10:54AM 42.4667 -71.2000 101° East 322 371 8,500 -1,320 Descending KA90
10:55AM 42.4500 -71.0833 101° East 303 349 7,300 -900 Descending KA90
10:56AM 42.4333 -71.0000 105° East 276 318 6,900 -660 Descending KA90
10:57AM 42.4000 -70.9167 118° Southeast 254 292 6,100 -1,080 Descending KA90
10:58AM 42.3500 -70.8333 129° Southeast 253 291 4,700 -1,200 Descending KA90
10:59AM 42.3347 -70.8194 146° Southeast 252 290 4,400 -1,020 Descending Boston Center
11:00AM 42.2822 -70.8014 166° South 227 261 3,400 -900 Descending Boston Center
11:01AM 42.2664 -70.8578 249° West 127 146 2,600 -840 Descending Boston Center
11:01AM 42.2833 -70.8833 312° West 142 163 2,000 -780 Descending KA90
11:02AM 42.3000 -70.9333 294° West 133 153 1,300 -720 Descending KA90
11:03AM 42.3333 -70.9500 340° North 126 145 800 -600 Descending KA90
11:06AM 42.3630 -71.0064 180° South  Level Estimated